createdAt,value
2022-10-02T00:57:20.289Z,82.50
2022-10-02T01:00:09.225Z,82.60
2022-10-02T01:02:44.548Z,82.80
2022-10-02T01:05:13.959Z,83.10
2022-10-02T01:07:44.052Z,83.40
2022-10-02T01:10:14.033Z,83.70
2022-10-02T01:12:45.585Z,84.00
2022-10-02T01:15:19.221Z,84.00
2022-10-02T01:17:51.387Z,83.80
2022-10-02T01:20:24.581Z,83.90
2022-10-02T01:23:00.879Z,84.20
2022-10-02T01:25:29.120Z,84.10
2022-10-02T01:27:59.924Z,83.90
2022-10-02T01:30:29.106Z,83.90
2022-10-02T01:33:00.504Z,84.00
2022-10-02T01:35:32.599Z,84.00
2022-10-02T01:38:06.700Z,84.10
2022-10-02T01:40:41.382Z,84.00
2022-10-02T01:43:34.468Z,84.00
2022-10-02T01:46:21.924Z,83.90
2022-10-02T01:49:10.871Z,83.70
2022-10-02T01:52:13.444Z,83.50
2022-10-02T01:54:56.680Z,83.40
2022-10-02T01:57:38.766Z,83.30
2022-10-02T02:00:18.516Z,83.20
2022-10-02T02:02:59.486Z,83.20
2022-10-02T02:05:37.299Z,83.40
2022-10-02T02:08:17.030Z,83.40
2022-10-02T02:11:00.410Z,83.50
2022-10-02T02:13:36.957Z,83.50
2022-10-02T02:16:26.430Z,83.50
2022-10-02T02:19:17.110Z,83.50
2022-10-02T02:22:10.938Z,83.50
2022-10-02T02:25:16.663Z,83.40
2022-10-02T02:27:56.260Z,83.20
2022-10-02T02:30:28.340Z,83.00
2022-10-02T02:33:04.846Z,82.90
2022-10-02T02:35:48.360Z,82.90
2022-10-02T02:38:25.117Z,83.10
2022-10-02T02:40:53.190Z,83.00
2022-10-02T02:43:42.657Z,83.20
2022-10-02T02:46:34.664Z,83.20
2022-10-02T02:49:12.569Z,83.20
2022-10-02T02:51:47.018Z,83.20
2022-10-02T02:54:23.245Z,83.20
2022-10-02T02:57:03.095Z,83.30
2022-10-02T02:59:46.330Z,83.20
2022-10-02T03:02:17.420Z,83.10
2022-10-02T03:04:45.404Z,83.10
2022-10-02T03:07:47.467Z,83.10
2022-10-02T03:10:36.178Z,83.30
2022-10-02T03:13:50.241Z,83.40
2022-10-02T03:16:45.346Z,83.20
2022-10-02T03:20:00.205Z,83.30
2022-10-02T03:22:51.292Z,83.30
2022-10-02T03:25:54.660Z,83.40
2022-10-02T03:28:54.372Z,83.60
2022-10-02T03:31:31.658Z,84.00
2022-10-02T03:34:14.120Z,84.20
2022-10-02T03:36:46.273Z,84.10
2022-10-02T03:39:25.281Z,84.10
2022-10-02T03:42:12.488Z,84.20
2022-10-02T03:44:47.541Z,84.20
2022-10-02T03:47:23.071Z,84.20
2022-10-02T03:49:50.532Z,84.40
2022-10-02T03:52:22.900Z,84.30
2022-10-02T03:54:59.122Z,84.30
2022-10-02T03:57:29.547Z,84.30
2022-10-02T04:00:18.619Z,84.40
2022-10-02T04:03:31.824Z,84.30
2022-10-02T04:06:17.222Z,84.40
2022-10-02T04:08:52.768Z,84.60
2022-10-02T04:14:54.287Z,84.70
2022-10-02T04:17:38.687Z,84.30
2022-10-02T04:20:29.387Z,84.00
2022-10-02T04:23:07.179Z,83.80
2022-10-02T04:26:00.144Z,83.70
2022-10-02T04:28:43.877Z,83.70
2022-10-02T04:31:13.998Z,83.60
2022-10-02T04:33:43.315Z,83.50
2022-10-02T04:37:14.805Z,83.60
2022-10-02T04:40:05.814Z,83.50
2022-10-02T04:43:11.999Z,83.50
2022-10-02T04:45:54.425Z,83.50
2022-10-02T04:48:49.853Z,83.70
2022-10-02T04:51:47.827Z,83.90
2022-10-02T04:54:56.446Z,83.90
2022-10-02T04:57:38.961Z,83.90
2022-10-02T05:00:14.937Z,83.70
2022-10-02T05:02:54.134Z,84.10
2022-10-02T05:05:21.894Z,84.10
2022-10-02T05:08:39.682Z,84.00
2022-10-02T05:11:45.142Z,84.10
2022-10-02T06:19:04.739Z,84.60
2022-10-02T06:22:16.552Z,84.60
2022-10-02T06:24:47.091Z,84.60
2022-10-02T06:27:28.120Z,84.60
2022-10-02T06:30:00.674Z,84.50
2022-10-02T06:32:48.436Z,84.30
2022-10-02T06:35:20.659Z,84.30
2022-10-02T06:37:56.645Z,84.30
2022-10-02T06:40:45.644Z,84.20
2022-10-02T06:43:34.144Z,84.40
2022-10-02T06:46:23.011Z,84.40
2022-10-02T06:48:55.254Z,84.50
2022-10-02T06:51:38.799Z,84.50
2022-10-02T06:54:30.971Z,84.40
2022-10-02T06:57:06.670Z,84.20
2022-10-02T06:59:55.985Z,84.20
2022-10-02T07:03:00.130Z,84.30
2022-10-02T07:05:45.562Z,84.10
2022-10-02T07:08:50.678Z,84.00
2022-10-02T07:11:41.049Z,84.10
2022-10-02T07:14:54.955Z,84.00
2022-10-02T07:17:50.824Z,84.30
2022-10-02T07:20:41.823Z,84.20
2022-10-02T07:23:14.834Z,83.90
2022-10-02T07:26:07.678Z,83.50
2022-10-02T07:29:06.657Z,82.80
2022-10-02T07:32:03.749Z,82.80
2022-10-02T07:35:03.071Z,82.50
2022-10-02T07:37:45.740Z,82.50
2022-10-02T07:40:35.489Z,82.40
2022-10-02T07:43:44.544Z,82.20
2022-10-02T07:46:35.139Z,82.10
2022-10-02T07:49:23.142Z,82.00
2022-10-02T07:51:59.810Z,81.90
2022-10-02T07:54:53.851Z,81.70
2022-10-02T07:57:33.215Z,81.80
2022-10-02T08:00:22.680Z,81.50
2022-10-02T08:03:01.940Z,81.80
2022-10-02T08:05:43.005Z,81.90
2022-10-02T08:08:35.849Z,81.60
2022-10-02T08:11:08.223Z,81.20
2022-10-02T08:13:42.930Z,81.00
2022-10-02T08:16:10.936Z,81.00
2022-10-02T08:19:01.045Z,80.30
2022-10-02T08:21:32.295Z,79.90
2022-10-02T08:24:07.004Z,80.10
2022-10-02T08:26:43.668Z,79.90
2022-10-02T08:29:19.783Z,79.90
2022-10-02T08:31:47.146Z,79.40
2022-10-02T08:34:18.588Z,79.00
2022-10-02T08:37:04.302Z,79.30
2022-10-02T08:39:45.573Z,79.30
2022-10-02T08:42:31.119Z,78.70
2022-10-02T08:45:28.413Z,78.70
2022-10-02T08:48:34.817Z,78.50
2022-10-02T08:51:30.125Z,78.20
2022-10-02T08:54:28.159Z,78.40
2022-10-02T08:57:49.718Z,78.10
2022-10-02T09:01:11.295Z,78.10
2022-10-02T09:03:47.577Z,77.50
2022-10-02T09:06:43.928Z,77.20
2022-10-02T09:09:29.598Z,77.30
2022-10-02T09:12:11.998Z,76.50
2022-10-02T09:14:59.065Z,75.20
2022-10-02T09:18:16.790Z,75.70
2022-10-02T09:21:11.935Z,75.20
2022-10-02T09:23:56.876Z,74.40
2022-10-02T09:26:42.679Z,75.10
2022-10-02T09:29:50.256Z,74.30
2022-10-02T09:32:34.514Z,74.70
2022-10-02T09:35:29.089Z,73.70
2022-10-02T09:38:08.456Z,73.60
2022-10-02T09:40:50.798Z,73.30
2022-10-02T09:43:56.084Z,73.10
2022-10-02T09:46:35.385Z,73.00
2022-10-02T09:49:20.942Z,72.20
2022-10-02T09:52:02.155Z,72.40
2022-10-02T09:54:41.091Z,71.20
2022-10-02T09:57:32.633Z,71.50
2022-10-02T10:00:08.161Z,72.50
2022-10-02T10:02:39.043Z,72.70
2022-10-02T10:05:50.690Z,73.40
2022-10-02T10:08:36.641Z,72.80
2022-10-02T10:11:18.763Z,73.30
2022-10-02T10:13:51.832Z,73.50
2022-10-02T10:16:49.169Z,73.60
2022-10-02T10:20:04.808Z,71.90
2022-10-02T10:22:43.909Z,70.00
2022-10-02T10:25:51.986Z,69.70
2022-10-02T10:28:33.767Z,68.30
2022-10-02T10:31:39.445Z,68.00
2022-10-02T10:34:46.171Z,66.80
2022-10-02T10:38:08.400Z,67.60
2022-10-02T10:40:38.623Z,69.10
2022-10-02T10:43:42.034Z,70.00
2022-10-02T10:46:21.032Z,70.80
2022-10-02T10:49:00.617Z,71.50
2022-10-02T10:52:11.652Z,70.60
2022-10-02T10:55:06.831Z,70.40
2022-10-02T10:57:33.938Z,69.30
2022-10-02T11:00:32.938Z,68.90
2022-10-02T11:03:06.028Z,69.40
2022-10-02T11:05:53.438Z,69.10
2022-10-02T11:09:00.871Z,65.80
2022-10-02T11:11:43.446Z,67.00
2022-10-02T11:14:49.539Z,67.40
2022-10-02T11:17:48.805Z,66.50
2022-10-02T11:20:36.126Z,67.40
2022-10-02T11:23:25.189Z,66.20
2022-10-02T11:26:06.206Z,66.40
2022-10-02T11:29:10.942Z,65.70
2022-10-02T11:31:55.318Z,65.80
2022-10-02T11:34:43.996Z,65.20
2022-10-02T11:37:18.393Z,65.30
2022-10-02T11:40:10.224Z,64.80
2022-10-02T11:42:49.298Z,62.90
2022-10-02T11:45:55.166Z,61.30
2022-10-02T11:48:43.489Z,60.90
2022-10-02T11:51:32.086Z,62.30
2022-10-02T11:54:28.874Z,63.50
2022-10-02T11:57:20.717Z,62.00
2022-10-02T12:00:13.430Z,62.20
2022-10-02T12:03:19.430Z,60.20
2022-10-02T12:05:57.717Z,57.50
2022-10-02T12:08:50.320Z,59.10
2022-10-02T12:11:34.448Z,59.30
2022-10-02T12:14:19.288Z,60.50
2022-10-02T12:17:05.283Z,60.20
2022-10-02T12:20:09.991Z,60.50
2022-10-02T12:23:15.852Z,61.50
2022-10-02T12:26:33.952Z,60.60
2022-10-02T12:29:07.087Z,61.60
2022-10-02T12:32:26.821Z,63.20
2022-10-02T12:35:10.982Z,63.50
2022-10-02T12:37:53.300Z,63.60
2022-10-02T12:40:41.737Z,63.60
2022-10-02T12:43:42.830Z,62.10
2022-10-02T12:46:43.401Z,61.40
2022-10-02T12:49:13.348Z,60.70
2022-10-02T12:52:08.215Z,60.40
2022-10-02T12:55:03.556Z,60.50
2022-10-02T12:57:55.453Z,60.40
2022-10-02T13:00:40.361Z,60.30
2022-10-02T13:03:57.877Z,61.30
2022-10-02T13:07:00.126Z,59.80
2022-10-02T13:09:45.461Z,58.70
2022-10-02T13:12:42.415Z,58.50
2022-10-02T13:15:29.107Z,57.90
2022-10-02T13:18:30.380Z,58.10
2022-10-02T13:21:07.217Z,58.60
2022-10-02T13:24:06.023Z,58.40
2022-10-02T13:26:57.609Z,58.60
2022-10-02T13:29:58.413Z,58.70
2022-10-02T13:33:11.055Z,56.90
2022-10-02T13:35:55.355Z,56.20
2022-10-02T13:38:57.628Z,56.90
2022-10-02T13:41:36.965Z,56.70
2022-10-02T13:44:33.912Z,55.30
2022-10-02T13:47:26.881Z,56.20
2022-10-02T13:50:24.403Z,56.10
2022-10-02T13:53:24.300Z,55.60
2022-10-02T13:56:08.452Z,55.60
2022-10-02T13:59:04.883Z,56.10
2022-10-02T14:05:01.543Z,55.70
2022-10-02T14:07:46.927Z,55.60
2022-10-02T14:10:16.678Z,55.20
2022-10-02T14:13:23.395Z,56.10
2022-10-02T14:16:21.702Z,56.60
2022-10-02T14:19:30.416Z,57.40
2022-10-02T14:22:09.577Z,57.40
2022-10-02T14:25:04.453Z,57.20
2022-10-02T14:28:00.040Z,55.90
2022-10-02T14:30:46.957Z,56.10
2022-10-02T14:33:41.131Z,56.40
2022-10-02T14:36:14.131Z,55.80
2022-10-02T14:39:00.121Z,55.60
2022-10-02T14:41:30.194Z,54.20
2022-10-02T14:44:13.935Z,55.00
2022-10-02T14:46:51.090Z,55.80
2022-10-02T14:49:34.761Z,56.60
2022-10-02T14:52:41.035Z,56.50
2022-10-02T14:55:26.934Z,57.40
2022-10-02T14:58:12.965Z,57.60
2022-10-02T15:01:26.752Z,56.50
2022-10-02T15:04:01.101Z,56.50
2022-10-02T15:06:43.414Z,56.50
2022-10-02T15:09:23.655Z,56.60
2022-10-02T15:12:07.217Z,57.00
2022-10-02T15:14:53.131Z,57.10
2022-10-02T15:18:00.468Z,57.20
2022-10-02T15:20:40.606Z,57.00
2022-10-02T15:23:12.862Z,56.20
2022-10-02T15:26:07.929Z,56.50
2022-10-02T15:28:55.840Z,56.70
2022-10-02T15:31:36.814Z,56.70
2022-10-02T15:34:14.635Z,56.80
2022-10-02T15:37:19.183Z,56.40
2022-10-02T15:39:55.589Z,56.80
2022-10-02T15:42:56.144Z,57.40
2022-10-02T15:45:40.385Z,57.50
2022-10-02T15:48:16.344Z,58.10
2022-10-02T15:51:06.956Z,58.10
2022-10-02T15:53:52.822Z,58.10
2022-10-02T15:56:41.459Z,58.40
2022-10-02T15:59:37.474Z,58.50
2022-10-02T16:02:26.174Z,58.80
2022-10-02T16:05:21.503Z,59.10
2022-10-02T16:08:21.958Z,59.30
2022-10-02T16:11:17.785Z,59.30
2022-10-02T16:13:51.491Z,59.00
2022-10-02T16:17:06.016Z,59.20
2022-10-02T16:19:33.037Z,59.60
2022-10-02T16:22:22.482Z,59.70
2022-10-02T16:25:28.550Z,59.10
2022-10-02T16:28:26.680Z,58.90
2022-10-02T16:31:00.494Z,59.10
2022-10-02T16:33:47.724Z,59.00
2022-10-02T16:36:34.694Z,59.10
2022-10-02T16:39:04.882Z,59.50
2022-10-02T16:41:49.941Z,59.90
2022-10-02T16:44:58.711Z,60.40
2022-10-02T16:47:44.130Z,60.50
2022-10-02T16:50:33.418Z,60.80
2022-10-02T16:53:15.416Z,61.20
2022-10-02T16:55:50.989Z,61.60
2022-10-02T16:58:24.730Z,62.00
2022-10-02T17:01:04.046Z,62.20
2022-10-02T17:03:56.711Z,62.50
2022-10-02T17:06:26.330Z,62.90
2022-10-02T17:09:03.271Z,63.00
2022-10-02T17:11:43.373Z,63.40
2022-10-02T17:14:18.697Z,63.70
2022-10-02T17:16:55.825Z,63.90
2022-10-02T17:19:35.287Z,64.00
2022-10-02T17:22:43.041Z,64.10
2022-10-02T17:25:29.832Z,64.40
2022-10-02T17:28:30.402Z,64.60
2022-10-02T17:31:21.977Z,65.00
2022-10-02T17:34:00.616Z,65.10
2022-10-02T17:36:47.945Z,65.40
2022-10-02T17:39:45.280Z,65.50
2022-10-02T17:42:32.885Z,65.70
2022-10-02T17:45:26.365Z,65.90
2022-10-02T17:47:57.634Z,66.20
2022-10-02T17:50:51.090Z,66.40
2022-10-02T17:53:42.597Z,66.50
2022-10-02T17:56:38.368Z,66.50
2022-10-02T17:59:24.426Z,66.60
2022-10-02T18:02:14.345Z,66.80
2022-10-02T18:05:00.598Z,67.00
2022-10-02T18:07:30.587Z,67.10
2022-10-02T18:10:33.403Z,67.20
2022-10-02T18:13:15.208Z,67.50
2022-10-02T18:15:58.212Z,67.40
2022-10-02T18:19:02.060Z,67.50
2022-10-02T18:21:41.763Z,67.70
2022-10-02T18:24:17.410Z,67.90
2022-10-02T18:27:08.728Z,68.10
2022-10-02T18:29:52.770Z,68.40
2022-10-02T18:32:41.191Z,68.60
2022-10-02T18:35:37.483Z,68.80
2022-10-02T18:38:17.621Z,68.80
2022-10-02T18:40:55.621Z,68.90
2022-10-02T18:43:39.082Z,69.00
2022-10-02T18:46:12.775Z,69.00
2022-10-02T18:48:51.823Z,69.10
2022-10-02T18:51:33.134Z,69.10
2022-10-02T18:54:16.055Z,69.20
2022-10-02T18:57:09.238Z,69.30
2022-10-02T18:59:45.188Z,69.50
2022-10-02T19:02:22.579Z,69.80
2022-10-02T19:05:27.630Z,69.90
2022-10-02T19:08:28.665Z,70.10
2022-10-02T19:10:55.751Z,70.20
2022-10-02T19:13:29.181Z,70.40
2022-10-02T19:16:01.682Z,70.40
2022-10-02T19:18:30.743Z,70.30
2022-10-02T19:21:10.829Z,70.60
2022-10-02T19:23:52.412Z,70.60
2022-10-02T19:26:23.815Z,70.40
2022-10-02T19:29:00.213Z,70.40
2022-10-02T19:31:30.618Z,70.30
2022-10-02T19:34:04.592Z,70.30
2022-10-02T19:36:40.218Z,70.40
2022-10-02T19:39:16.603Z,70.50
2022-10-02T19:41:44.809Z,70.60
2022-10-02T19:44:45.992Z,70.50
2022-10-02T19:47:31.876Z,70.60
2022-10-02T19:50:01.507Z,70.60
2022-10-02T19:52:47.048Z,70.70
2022-10-02T19:55:22.750Z,71.00
2022-10-02T19:57:51.730Z,71.00
2022-10-02T20:00:20.196Z,71.10
2022-10-02T20:02:57.613Z,71.20
2022-10-02T20:05:31.703Z,71.30
2022-10-02T20:08:06.830Z,71.30
2022-10-02T20:10:36.040Z,71.30
2022-10-02T20:13:13.122Z,71.40
2022-10-02T20:16:15.500Z,71.60
2022-10-02T20:18:42.916Z,71.70
2022-10-02T20:21:28.601Z,71.60
2022-10-02T20:23:58.016Z,71.60
2022-10-02T20:26:30.063Z,71.70
2022-10-02T20:29:02.033Z,71.70
2022-10-02T20:32:00.722Z,71.60
2022-10-02T20:34:53.912Z,71.70
2022-10-02T20:37:29.970Z,71.70
2022-10-02T20:40:08.706Z,71.90
2022-10-02T20:42:53.394Z,71.90
2022-10-02T20:45:26.638Z,72.00
2022-10-02T20:48:17.415Z,72.10
2022-10-02T20:50:51.627Z,72.20
2022-10-02T20:53:42.373Z,72.30
2022-10-02T20:56:28.555Z,72.50
2022-10-02T20:59:29.631Z,72.50
2022-10-02T22:37:04.853Z,74.40
2022-10-02T22:39:40.647Z,74.50
2022-10-02T22:42:27.466Z,74.50
2022-10-02T22:45:01.593Z,74.50
2022-10-02T22:47:49.404Z,74.60
2022-10-02T22:50:27.873Z,74.80
2022-10-02T22:53:04.488Z,74.80
2022-10-02T22:55:36.139Z,74.80
2022-10-02T22:58:22.875Z,74.80
2022-10-02T23:32:52.088Z,75.10
2022-10-02T23:35:48.629Z,75.20
2022-10-02T23:38:40.597Z,75.20
2022-10-02T23:41:43.237Z,75.10
2022-10-02T23:44:27.166Z,75.20
2022-10-02T23:47:20.980Z,75.20
2022-10-02T23:49:54.763Z,75.20
2022-10-02T23:53:19.058Z,75.40
2022-10-02T23:57:00.341Z,75.40
